createdAt,value
2022-07-31T00:00:43.018Z,18.67
2022-07-31T00:01:45.082Z,18.65
2022-07-31T00:02:46.982Z,18.61
2022-07-31T00:03:48.632Z,18.59
2022-07-31T00:04:50.335Z,18.58
2022-07-31T00:05:51.962Z,18.27
2022-07-31T00:06:53.667Z,18.51
2022-07-31T00:07:55.413Z,18.48
2022-07-31T00:08:56.926Z,18.44
2022-07-31T00:09:58.485Z,18.41
2022-07-31T00:11:00.113Z,18.38
2022-07-31T00:12:01.736Z,18.37
2022-07-31T00:13:03.787Z,18.34
2022-07-31T00:14:05.466Z,18.28
2022-07-31T00:15:09.957Z,18.28
2022-07-31T00:16:11.521Z,18.30
2022-07-31T00:17:13.125Z,18.35
2022-07-31T00:18:14.730Z,18.35
2022-07-31T00:19:17.499Z,18.37
2022-07-31T00:20:19.100Z,18.33
2022-07-31T00:21:20.922Z,18.37
2022-07-31T00:22:22.509Z,18.35
2022-07-31T00:23:24.128Z,18.30
2022-07-31T00:24:26.938Z,18.29
2022-07-31T00:25:32.079Z,18.17
2022-07-31T00:26:33.688Z,18.13
2022-07-31T00:27:35.443Z,18.08
2022-07-31T00:28:37.600Z,18.05
2022-07-31T00:29:39.623Z,18.03
2022-07-31T00:30:41.123Z,18.01
2022-07-31T00:31:42.698Z,17.99
2022-07-31T00:32:45.275Z,17.94
2022-07-31T00:33:46.919Z,17.91
2022-07-31T00:34:48.548Z,17.88
2022-07-31T00:35:50.231Z,17.81
2022-07-31T00:36:51.826Z,17.77
2022-07-31T00:38:02.216Z,17.76
2022-07-31T00:39:15.331Z,17.75
2022-07-31T00:40:17.607Z,17.71
2022-07-31T00:41:19.383Z,17.64
2022-07-31T00:42:25.601Z,17.60
2022-07-31T00:43:30.000Z,17.56
2022-07-31T00:44:32.577Z,17.57
2022-07-31T00:45:34.138Z,17.56
2022-07-31T00:46:40.285Z,17.51
2022-07-31T00:47:42.545Z,17.43
2022-07-31T00:48:44.178Z,17.40
2022-07-31T00:49:46.189Z,17.40
2022-07-31T00:50:47.749Z,17.39
2022-07-31T00:51:49.368Z,17.37
2022-07-31T00:52:51.598Z,17.38
2022-07-31T00:53:53.362Z,17.38
2022-07-31T00:54:54.948Z,17.33
2022-07-31T00:55:57.394Z,17.27
2022-07-31T00:56:58.954Z,17.25
2022-07-31T00:58:02.369Z,17.22
2022-07-31T00:59:04.906Z,16.99
2022-07-31T01:00:07.114Z,17.14
2022-07-31T01:01:08.731Z,17.16
2022-07-31T01:02:10.629Z,17.11
2022-07-31T01:03:12.227Z,17.09
2022-07-31T01:04:16.337Z,17.00
2022-07-31T01:05:20.970Z,17.06
2022-07-31T01:06:22.985Z,17.07
2022-07-31T01:07:24.516Z,17.10
2022-07-31T01:08:26.079Z,17.15
2022-07-31T01:09:27.607Z,17.17
2022-07-31T01:10:43.263Z,17.17
2022-07-31T01:11:49.109Z,17.17
2022-07-31T01:12:56.623Z,17.18
2022-07-31T01:14:01.605Z,17.22
2022-07-31T01:15:07.166Z,17.17
2022-07-31T01:16:11.100Z,17.27
2022-07-31T01:17:13.791Z,17.26
2022-07-31T01:18:17.363Z,17.30
2022-07-31T01:19:38.114Z,17.33
2022-07-31T01:20:48.222Z,17.35
2022-07-31T01:21:58.326Z,17.32
2022-07-31T01:22:59.838Z,17.34
2022-07-31T01:24:08.495Z,17.35
2022-07-31T01:25:25.805Z,17.30
2022-07-31T01:26:42.276Z,17.35
2022-07-31T01:28:02.244Z,17.34
2022-07-31T01:29:10.120Z,17.37
2022-07-31T01:30:11.948Z,17.33
2022-07-31T01:31:27.048Z,17.38
2022-07-31T01:32:43.041Z,17.37
2022-07-31T01:33:53.848Z,17.35
2022-07-31T01:35:06.571Z,17.36
2022-07-31T01:36:16.280Z,17.29
2022-07-31T01:37:27.598Z,17.33
2022-07-31T01:38:42.495Z,17.29
2022-07-31T01:39:54.643Z,17.23
2022-07-31T01:41:02.584Z,17.18
2022-07-31T01:42:07.612Z,17.13
2022-07-31T01:43:13.876Z,17.10
2022-07-31T01:44:18.252Z,17.07
2022-07-31T01:45:22.323Z,17.02
2022-07-31T01:46:27.965Z,16.98
2022-07-31T01:47:32.472Z,16.93
2022-07-31T01:48:36.405Z,16.92
2022-07-31T01:49:39.849Z,16.87
2022-07-31T01:50:47.662Z,16.92
2022-07-31T01:51:49.779Z,16.88
2022-07-31T01:52:57.457Z,16.86
2022-07-31T01:54:01.570Z,16.84
2022-07-31T01:55:05.175Z,16.77
2022-07-31T01:56:07.560Z,16.80
2022-07-31T01:57:10.804Z,16.77
2022-07-31T01:58:18.964Z,16.76
2022-07-31T01:59:22.814Z,16.76
2022-07-31T02:00:34.558Z,16.76
2022-07-31T02:01:39.083Z,16.73
2022-07-31T02:02:43.228Z,16.71
2022-07-31T02:03:46.387Z,16.72
2022-07-31T02:04:54.285Z,16.70
2022-07-31T02:05:57.520Z,16.73
2022-07-31T02:07:01.273Z,16.66
2022-07-31T02:08:05.951Z,16.67
2022-07-31T02:09:07.748Z,16.66
2022-07-31T02:10:15.595Z,16.39
2022-07-31T02:11:19.248Z,16.63
2022-07-31T02:12:33.534Z,16.62
2022-07-31T02:13:37.441Z,16.60
2022-07-31T02:14:41.893Z,16.58
2022-07-31T02:15:44.992Z,16.58
2022-07-31T02:16:47.295Z,16.59
2022-07-31T02:17:50.534Z,16.59
2022-07-31T02:18:53.932Z,16.59
2022-07-31T02:20:00.088Z,16.61
2022-07-31T02:21:05.127Z,16.62
2022-07-31T02:22:07.405Z,16.65
2022-07-31T02:23:09.139Z,16.67
2022-07-31T02:24:10.991Z,16.63
2022-07-31T02:25:12.690Z,16.69
2022-07-31T02:26:16.160Z,16.72
2022-07-31T02:27:53.771Z,16.72
2022-07-31T02:28:43.643Z,16.74
2022-07-31T02:29:45.592Z,16.74
2022-07-31T02:30:48.824Z,16.77
2022-07-31T02:32:01.998Z,16.78
2022-07-31T02:33:18.861Z,16.78
2022-07-31T02:34:20.533Z,16.71
2022-07-31T02:35:31.729Z,16.70
2022-07-31T02:36:35.011Z,16.69
2022-07-31T02:37:39.854Z,16.66
2022-07-31T02:38:43.501Z,16.63
2022-07-31T02:39:46.323Z,16.62
2022-07-31T02:40:49.317Z,16.60
2022-07-31T02:41:52.720Z,16.59
2022-07-31T02:42:55.594Z,16.59
2022-07-31T02:43:57.927Z,16.55
2022-07-31T02:45:01.819Z,16.50
2022-07-31T02:46:04.616Z,16.47
2022-07-31T02:47:06.549Z,16.46
2022-07-31T02:48:10.380Z,16.45
2022-07-31T02:49:14.036Z,16.44
2022-07-31T02:50:20.519Z,16.41
2022-07-31T02:51:23.425Z,16.42
2022-07-31T02:52:26.442Z,16.42
2022-07-31T02:53:29.593Z,16.38
2022-07-31T02:54:33.903Z,16.42
2022-07-31T02:55:38.345Z,16.40
2022-07-31T02:56:41.387Z,16.40
2022-07-31T02:57:44.545Z,16.38
2022-07-31T02:58:46.186Z,16.38
2022-07-31T02:59:47.887Z,16.36
2022-07-31T03:01:07.499Z,16.35
2022-07-31T03:02:09.154Z,16.34
2022-07-31T03:03:10.784Z,16.36
2022-07-31T03:04:12.354Z,16.39
2022-07-31T03:05:14.008Z,16.38
2022-07-31T03:06:16.703Z,16.34
2022-07-31T03:07:18.452Z,16.39
2022-07-31T03:08:20.114Z,16.44
2022-07-31T03:09:22.037Z,16.53
2022-07-31T03:10:23.741Z,16.58
2022-07-31T03:11:25.449Z,16.63
2022-07-31T03:12:27.251Z,16.65
2022-07-31T03:13:31.400Z,16.66
2022-07-31T03:14:35.171Z,16.78
2022-07-31T03:15:40.272Z,16.85
2022-07-31T03:16:46.506Z,16.87
2022-07-31T03:17:49.107Z,16.94
2022-07-31T03:18:51.671Z,16.93
2022-07-31T03:19:53.852Z,17.06
2022-07-31T03:20:56.797Z,17.02
2022-07-31T03:21:59.348Z,17.12
2022-07-31T03:23:02.160Z,17.12
2022-07-31T03:24:04.727Z,17.15
2022-07-31T03:25:07.925Z,17.17
2022-07-31T03:26:10.723Z,17.15
2022-07-31T03:27:12.379Z,17.15
2022-07-31T03:28:14.140Z,17.18
2022-07-31T03:29:39.267Z,17.13
2022-07-31T03:30:37.686Z,17.08
2022-07-31T03:31:39.295Z,17.22
2022-07-31T03:32:40.834Z,17.26
2022-07-31T03:33:42.755Z,17.26
2022-07-31T03:34:44.305Z,17.25
2022-07-31T03:35:45.949Z,17.19
2022-07-31T03:36:48.775Z,17.28
2022-07-31T03:37:50.640Z,17.33
2022-07-31T03:38:52.290Z,17.34
2022-07-31T03:39:56.963Z,17.32
2022-07-31T03:40:58.483Z,17.28
2022-07-31T03:42:02.315Z,17.00
2022-07-31T03:43:04.850Z,17.24
2022-07-31T03:44:06.689Z,17.24
2022-07-31T03:45:10.924Z,17.17
2022-07-31T03:46:14.905Z,17.21
2022-07-31T03:47:17.040Z,17.13
2022-07-31T03:48:18.744Z,17.13
2022-07-31T03:49:21.737Z,16.88
2022-07-31T03:50:24.519Z,17.02
2022-07-31T03:51:26.341Z,17.10
2022-07-31T03:52:29.119Z,17.11
2022-07-31T03:53:31.465Z,17.11
2022-07-31T03:54:33.113Z,17.09
2022-07-31T03:55:37.883Z,17.08
2022-07-31T03:56:45.067Z,17.05
2022-07-31T03:57:48.393Z,17.00
2022-07-31T03:58:52.388Z,17.10
2022-07-31T03:59:57.737Z,17.11
2022-07-31T04:00:59.721Z,17.12
2022-07-31T04:02:05.440Z,17.13
2022-07-31T04:03:11.148Z,17.13
2022-07-31T04:04:13.553Z,17.13
2022-07-31T04:05:15.290Z,17.12
2022-07-31T04:06:17.090Z,17.06
2022-07-31T04:07:19.451Z,17.09
2022-07-31T04:08:20.977Z,17.11
2022-07-31T04:09:22.568Z,17.14
2022-07-31T04:10:24.211Z,17.18
2022-07-31T04:11:25.766Z,17.22
2022-07-31T04:12:27.307Z,16.82
2022-07-31T04:13:28.886Z,17.35
2022-07-31T04:14:30.623Z,17.34
2022-07-31T04:15:33.102Z,17.43
2022-07-31T04:16:34.719Z,17.46
2022-07-31T04:17:36.251Z,17.45
2022-07-31T04:18:38.091Z,17.51
2022-07-31T04:19:39.850Z,17.56
2022-07-31T04:20:41.387Z,17.56
2022-07-31T04:21:42.976Z,17.60
2022-07-31T04:22:44.869Z,17.68
2022-07-31T04:23:50.769Z,17.75
2022-07-31T04:24:52.361Z,17.75
2022-07-31T04:25:53.955Z,17.77
2022-07-31T04:26:56.258Z,17.80
2022-07-31T04:27:57.831Z,17.89
2022-07-31T04:28:59.534Z,17.92
2022-07-31T04:30:01.177Z,17.99
2022-07-31T04:31:04.662Z,18.05
2022-07-31T04:32:06.701Z,18.10
2022-07-31T04:33:08.544Z,18.20
2022-07-31T04:34:10.177Z,18.28
2022-07-31T04:35:12.013Z,18.31
2022-07-31T04:36:29.567Z,18.36
2022-07-31T04:37:32.902Z,18.45
2022-07-31T04:38:34.409Z,18.49
2022-07-31T04:39:36.652Z,18.51
2022-07-31T04:40:38.541Z,18.57
2022-07-31T04:41:40.179Z,18.58
2022-07-31T04:42:41.712Z,18.61
2022-07-31T04:43:43.318Z,18.61
2022-07-31T04:44:45.239Z,18.62
2022-07-31T04:45:46.854Z,18.62
2022-07-31T04:46:48.937Z,18.67
2022-07-31T04:47:50.544Z,18.65
2022-07-31T04:48:52.163Z,18.46
2022-07-31T04:49:53.769Z,18.72
2022-07-31T04:50:55.364Z,18.75
2022-07-31T04:51:57.430Z,18.79
2022-07-31T04:52:58.988Z,18.84
2022-07-31T04:54:00.558Z,18.91
2022-07-31T04:55:02.260Z,18.98
2022-07-31T04:56:22.370Z,19.03
2022-07-31T04:57:23.936Z,19.07
2022-07-31T04:58:25.504Z,19.11
2022-07-31T05:00:00.599Z,19.15
2022-07-31T05:00:48.611Z,19.22
2022-07-31T05:01:51.439Z,19.22
2022-07-31T05:02:53.190Z,19.25
2022-07-31T05:03:54.786Z,19.31
2022-07-31T05:04:57.329Z,19.32
2022-07-31T05:06:09.627Z,19.42
2022-07-31T05:07:11.775Z,19.47
2022-07-31T05:08:13.337Z,19.53
2022-07-31T05:09:19.038Z,19.57
2022-07-31T05:10:39.880Z,19.62
2022-07-31T05:11:42.106Z,19.61
2022-07-31T05:12:43.635Z,19.68
2022-07-31T05:13:45.614Z,19.74
2022-07-31T05:14:47.154Z,19.76
2022-07-31T05:15:48.686Z,19.84
2022-07-31T05:16:50.516Z,19.87
2022-07-31T05:17:52.114Z,19.91
2022-07-31T05:18:54.311Z,19.92
2022-07-31T05:19:55.816Z,19.68
2022-07-31T05:20:57.382Z,19.86
2022-07-31T05:22:03.532Z,19.94
2022-07-31T05:23:06.555Z,19.99
2022-07-31T05:24:08.558Z,20.01
2022-07-31T05:25:10.123Z,20.03
2022-07-31T05:26:12.575Z,20.07
2022-07-31T05:27:14.323Z,20.07
2022-07-31T05:28:15.895Z,20.08
2022-07-31T05:29:18.456Z,20.10
2022-07-31T05:30:29.899Z,20.08
2022-07-31T05:31:32.219Z,20.12
2022-07-31T05:32:33.799Z,20.11
2022-07-31T05:33:35.985Z,20.12
2022-07-31T05:34:37.580Z,20.13
2022-07-31T05:35:39.150Z,20.11
2022-07-31T05:36:45.026Z,20.14
2022-07-31T05:37:46.579Z,20.13
2022-07-31T05:38:48.164Z,20.16
2022-07-31T05:39:49.773Z,20.19
2022-07-31T05:40:51.308Z,20.25
2022-07-31T05:41:52.980Z,20.29
2022-07-31T05:42:55.260Z,20.29
2022-07-31T05:43:56.833Z,20.28
2022-07-31T05:44:58.397Z,20.31
2022-07-31T05:46:00.023Z,20.34
2022-07-31T05:47:01.560Z,20.42
2022-07-31T05:48:03.531Z,20.44
2022-07-31T05:49:05.223Z,20.47
2022-07-31T05:50:08.170Z,20.54
2022-07-31T05:51:12.035Z,20.57
2022-07-31T05:52:13.599Z,20.58
2022-07-31T05:53:15.445Z,20.68
2022-07-31T05:54:17.615Z,20.80
2022-07-31T05:55:19.342Z,20.94
2022-07-31T05:56:21.380Z,21.06
2022-07-31T05:57:33.349Z,21.18
2022-07-31T05:58:36.226Z,21.32
2022-07-31T05:59:37.895Z,21.49
2022-07-31T06:00:42.054Z,21.55
2022-07-31T06:01:43.691Z,21.58
2022-07-31T06:02:45.537Z,21.68
2022-07-31T06:03:51.836Z,21.76
2022-07-31T06:04:53.897Z,21.78
2022-07-31T06:05:58.286Z,21.87
2022-07-31T06:06:59.834Z,21.95
2022-07-31T06:08:01.799Z,21.97
2022-07-31T06:09:04.709Z,21.95
2022-07-31T06:10:06.949Z,22.02
2022-07-31T06:11:08.509Z,22.02
2022-07-31T06:12:10.074Z,21.99
2022-07-31T06:13:12.236Z,22.00
2022-07-31T06:14:13.770Z,21.88
2022-07-31T06:15:15.736Z,21.80
2022-07-31T06:16:18.000Z,21.78
2022-07-31T06:17:19.601Z,21.77
2022-07-31T06:18:21.737Z,21.84
2022-07-31T06:19:24.747Z,21.90
2022-07-31T06:20:27.073Z,21.84
2022-07-31T06:21:30.762Z,21.82
2022-07-31T06:22:32.793Z,21.77
2022-07-31T06:23:34.402Z,21.77
2022-07-31T06:24:38.394Z,21.70
2022-07-31T06:25:44.119Z,21.74
2022-07-31T06:26:48.089Z,21.78
2022-07-31T06:27:59.227Z,21.80
2022-07-31T06:29:01.627Z,21.91
2022-07-31T06:30:06.930Z,22.02
2022-07-31T06:31:08.532Z,22.11
2022-07-31T06:32:10.214Z,22.00
2022-07-31T06:33:36.694Z,22.16
2022-07-31T06:34:33.408Z,22.40
2022-07-31T06:35:34.991Z,22.49
2022-07-31T06:36:36.602Z,22.65
2022-07-31T06:37:38.259Z,22.81
2022-07-31T06:38:39.886Z,22.97
2022-07-31T06:39:55.738Z,23.06
2022-07-31T06:40:57.745Z,23.14
2022-07-31T06:41:59.418Z,23.27
2022-07-31T06:43:06.303Z,23.45
2022-07-31T06:44:08.621Z,23.62
2022-07-31T06:45:10.671Z,23.73
2022-07-31T06:46:13.723Z,23.72
2022-07-31T06:47:20.731Z,23.81
2022-07-31T06:48:22.414Z,24.09
2022-07-31T06:49:24.239Z,24.19
2022-07-31T06:50:25.945Z,24.27
2022-07-31T06:51:32.008Z,24.40
2022-07-31T06:52:34.072Z,24.64
2022-07-31T06:53:35.661Z,24.81
2022-07-31T06:54:37.357Z,25.14
2022-07-31T06:55:44.509Z,25.27
2022-07-31T06:56:46.473Z,25.43
2022-07-31T06:57:48.154Z,25.54
2022-07-31T06:58:49.868Z,25.60
2022-07-31T06:59:51.428Z,25.70
2022-07-31T07:00:53.310Z,25.90
2022-07-31T07:01:54.978Z,25.89
2022-07-31T07:02:56.612Z,25.75
2022-07-31T07:03:58.410Z,26.02
2022-07-31T07:05:06.676Z,26.25
2022-07-31T07:06:08.547Z,26.54
2022-07-31T07:07:10.240Z,26.92
2022-07-31T07:08:11.823Z,27.31
2022-07-31T07:09:13.545Z,27.44
2022-07-31T07:10:15.116Z,27.44
2022-07-31T07:11:19.560Z,27.55
2022-07-31T07:12:21.224Z,27.42
2022-07-31T07:13:24.166Z,27.69
2022-07-31T07:14:45.686Z,28.00
2022-07-31T07:15:47.528Z,28.09
2022-07-31T07:16:49.076Z,28.11
2022-07-31T07:17:50.593Z,28.01
2022-07-31T07:18:52.137Z,27.55
2022-07-31T07:19:54.933Z,27.64
2022-07-31T07:20:57.843Z,27.60
2022-07-31T07:21:59.684Z,27.43
2022-07-31T07:23:01.263Z,27.57
2022-07-31T07:24:04.116Z,27.83
2022-07-31T07:25:06.125Z,28.02
2022-07-31T07:26:08.307Z,27.80
2022-07-31T07:27:09.887Z,27.98
2022-07-31T07:28:15.218Z,28.50
2022-07-31T07:29:32.980Z,29.12
2022-07-31T07:30:35.457Z,29.72
2022-07-31T07:31:37.524Z,30.22
2022-07-31T07:32:39.136Z,30.65
2022-07-31T07:33:42.765Z,30.69
2022-07-31T07:34:44.737Z,30.60
2022-07-31T07:35:46.446Z,30.83
2022-07-31T07:36:48.084Z,30.74
2022-07-31T07:37:49.804Z,30.86
2022-07-31T07:38:56.102Z,30.80
2022-07-31T07:40:03.749Z,31.20
2022-07-31T07:41:05.698Z,31.69
2022-07-31T07:42:07.540Z,32.09
2022-07-31T07:43:09.402Z,32.54
2022-07-31T07:44:10.961Z,32.92
2022-07-31T07:45:13.970Z,32.87
2022-07-31T07:46:15.754Z,33.48
2022-07-31T07:47:17.870Z,33.38
2022-07-31T07:48:19.495Z,32.86
2022-07-31T07:49:21.752Z,32.92
2022-07-31T07:50:26.759Z,32.94
2022-07-31T07:51:30.855Z,33.31
2022-07-31T07:52:32.411Z,33.43
2022-07-31T07:53:34.072Z,32.93
2022-07-31T07:54:35.623Z,33.43
2022-07-31T07:55:37.703Z,33.73
2022-07-31T07:56:39.534Z,33.70
2022-07-31T07:57:45.305Z,33.77
2022-07-31T07:58:49.121Z,33.98
2022-07-31T07:59:50.734Z,33.93
2022-07-31T08:00:52.455Z,34.74
2022-07-31T08:01:54.241Z,35.30
2022-07-31T08:03:47.647Z,35.49
2022-07-31T08:04:17.673Z,35.70
2022-07-31T08:05:19.439Z,36.10
2022-07-31T08:06:22.609Z,35.72
2022-07-31T08:07:41.661Z,35.39
2022-07-31T08:08:44.043Z,35.35
2022-07-31T08:09:45.906Z,34.96
2022-07-31T08:10:47.665Z,34.89
2022-07-31T08:11:49.671Z,33.54
2022-07-31T08:12:51.244Z,32.62
2022-07-31T08:13:52.923Z,33.07
2022-07-31T08:14:54.618Z,33.40
2022-07-31T08:15:56.269Z,33.88
2022-07-31T08:16:57.940Z,34.43
2022-07-31T08:17:59.498Z,34.80
2022-07-31T08:19:01.068Z,34.55
2022-07-31T08:20:02.939Z,35.03
2022-07-31T08:21:04.599Z,34.95
2022-07-31T08:22:06.511Z,35.11
2022-07-31T08:23:08.442Z,34.53
2022-07-31T08:24:11.408Z,33.57
2022-07-31T08:25:15.201Z,32.92
2022-07-31T08:26:18.248Z,32.77
2022-07-31T08:27:37.971Z,32.58
2022-07-31T08:28:50.181Z,32.22
2022-07-31T08:29:58.358Z,32.13
2022-07-31T08:31:00.044Z,32.31
2022-07-31T08:32:02.042Z,32.64
2022-07-31T08:33:04.111Z,33.14
2022-07-31T08:34:05.758Z,33.95
2022-07-31T08:35:08.120Z,34.25
2022-07-31T08:36:09.754Z,34.62
2022-07-31T08:37:51.816Z,34.62
2022-07-31T08:38:33.222Z,34.91
2022-07-31T08:39:35.579Z,35.19
2022-07-31T08:40:42.747Z,35.87
2022-07-31T08:41:45.939Z,36.02
2022-07-31T08:42:47.761Z,35.78
2022-07-31T08:44:02.700Z,36.26
2022-07-31T08:45:07.962Z,36.20
2022-07-31T08:46:10.740Z,36.61
2022-07-31T08:47:15.016Z,37.05
2022-07-31T08:48:17.285Z,37.74
2022-07-31T08:49:23.344Z,38.09
2022-07-31T08:50:25.503Z,38.24
2022-07-31T08:51:28.144Z,37.92
2022-07-31T08:52:32.293Z,38.28
2022-07-31T08:53:36.717Z,38.20
2022-07-31T08:54:43.445Z,37.70
2022-07-31T08:55:57.070Z,37.43
2022-07-31T08:56:59.643Z,37.36
2022-07-31T08:58:01.314Z,36.98
2022-07-31T08:59:07.227Z,37.13
2022-07-31T09:00:13.128Z,37.10
2022-07-31T09:01:15.296Z,36.72
2022-07-31T09:02:17.013Z,36.39
2022-07-31T09:03:19.285Z,35.16
2022-07-31T09:04:20.887Z,36.02
2022-07-31T09:05:25.084Z,36.63
2022-07-31T09:06:27.410Z,36.69
2022-07-31T09:07:29.166Z,36.93
2022-07-31T09:08:36.005Z,37.23
2022-07-31T09:09:41.111Z,37.20
2022-07-31T09:11:03.423Z,37.83
2022-07-31T09:12:08.078Z,38.13
2022-07-31T09:13:14.978Z,38.36
2022-07-31T09:14:35.626Z,38.75
2022-07-31T09:15:37.665Z,38.15
2022-07-31T09:16:50.362Z,37.66
2022-07-31T09:17:53.950Z,37.01
2022-07-31T09:18:56.201Z,35.05
2022-07-31T09:19:57.839Z,35.14
2022-07-31T09:21:05.565Z,35.08
2022-07-31T09:22:11.055Z,35.32
2022-07-31T09:23:12.870Z,35.31
2022-07-31T09:24:27.730Z,35.23
2022-07-31T09:25:29.463Z,35.26
2022-07-31T09:26:35.023Z,34.92
2022-07-31T09:27:36.718Z,35.09
2022-07-31T09:28:39.286Z,35.30
2022-07-31T09:29:42.865Z,33.87
2022-07-31T09:30:56.118Z,33.57
2022-07-31T09:32:14.414Z,33.92
2022-07-31T09:33:17.555Z,34.39
2022-07-31T09:34:30.871Z,34.72
2022-07-31T09:35:39.800Z,34.98
2022-07-31T09:36:43.230Z,34.39
2022-07-31T09:37:47.515Z,34.06
2022-07-31T09:38:49.207Z,33.98
2022-07-31T09:39:52.027Z,34.62
2022-07-31T09:40:56.943Z,34.52
2022-07-31T09:42:10.467Z,34.67
2022-07-31T09:43:24.436Z,35.68
2022-07-31T09:44:36.030Z,36.03
2022-07-31T09:45:37.726Z,37.10
2022-07-31T09:46:51.402Z,38.07
2022-07-31T09:48:06.953Z,38.23
2022-07-31T09:49:09.545Z,37.88
2022-07-31T09:50:11.801Z,37.46
2022-07-31T09:51:13.380Z,37.30
2022-07-31T09:52:19.748Z,36.82
2022-07-31T09:53:22.147Z,37.30
2022-07-31T09:54:25.930Z,37.47
2022-07-31T09:55:28.634Z,37.33
2022-07-31T09:56:32.356Z,36.87
2022-07-31T09:57:38.113Z,35.44
2022-07-31T09:58:41.530Z,35.73
2022-07-31T09:59:44.103Z,36.01
2022-07-31T10:00:52.809Z,36.33
2022-07-31T10:01:55.494Z,36.62
2022-07-31T10:02:57.675Z,37.00
2022-07-31T10:04:01.504Z,36.87
2022-07-31T10:05:03.326Z,36.70
2022-07-31T10:06:06.897Z,36.52
2022-07-31T10:07:08.727Z,36.47
2022-07-31T10:08:35.982Z,36.33
2022-07-31T10:09:40.871Z,36.64
2022-07-31T10:10:46.606Z,36.65
2022-07-31T10:11:50.606Z,37.21
2022-07-31T10:12:55.218Z,37.75
2022-07-31T10:14:02.274Z,38.62
2022-07-31T10:15:07.191Z,38.82
2022-07-31T10:16:09.854Z,38.78
2022-07-31T10:17:12.930Z,39.33
2022-07-31T10:18:17.785Z,39.45
2022-07-31T10:19:40.908Z,39.17
2022-07-31T10:20:49.222Z,38.00
2022-07-31T10:21:59.736Z,38.38
2022-07-31T10:23:19.798Z,38.86
2022-07-31T10:24:27.879Z,39.20
2022-07-31T10:25:31.044Z,39.54
2022-07-31T10:26:58.674Z,38.64
2022-07-31T10:27:57.266Z,38.19
2022-07-31T10:28:59.341Z,37.48
2022-07-31T10:30:01.579Z,37.18
2022-07-31T10:31:03.857Z,36.85
2022-07-31T10:32:06.675Z,36.87
2022-07-31T10:33:40.839Z,36.96
2022-07-31T10:34:34.826Z,37.41
2022-07-31T10:35:44.586Z,37.84
2022-07-31T10:37:05.690Z,37.46
2022-07-31T10:38:22.720Z,37.26
2022-07-31T10:39:30.112Z,36.44
2022-07-31T10:40:35.890Z,36.90
2022-07-31T10:42:00.399Z,37.28
2022-07-31T10:43:17.333Z,36.65
2022-07-31T10:44:38.204Z,36.83
2022-07-31T10:45:54.012Z,36.78
2022-07-31T10:46:55.630Z,37.28
2022-07-31T10:47:59.777Z,37.52
2022-07-31T10:49:08.562Z,38.04
2022-07-31T10:50:20.835Z,38.87
2022-07-31T10:51:23.331Z,39.82
2022-07-31T10:52:37.185Z,40.52
2022-07-31T10:53:51.490Z,41.06
2022-07-31T10:55:00.113Z,39.96
2022-07-31T10:56:12.945Z,40.40
2022-07-31T10:57:24.986Z,40.28
2022-07-31T10:58:26.824Z,40.15
2022-07-31T10:59:29.217Z,39.63
2022-07-31T11:00:33.558Z,39.37
2022-07-31T11:01:53.370Z,39.40
2022-07-31T11:02:55.308Z,39.40
2022-07-31T11:04:01.698Z,39.15
2022-07-31T11:05:27.846Z,39.25
2022-07-31T11:06:44.639Z,39.69
2022-07-31T11:07:46.481Z,39.46
2022-07-31T11:08:53.892Z,38.60
2022-07-31T11:09:55.531Z,38.69
2022-07-31T11:11:00.783Z,38.15
2022-07-31T11:12:17.600Z,36.57
2022-07-31T11:13:20.880Z,36.23
2022-07-31T11:14:35.496Z,35.38
2022-07-31T11:15:39.754Z,34.33
2022-07-31T11:16:55.597Z,34.29
2022-07-31T11:18:21.123Z,33.76
2022-07-31T11:19:19.190Z,33.37
2022-07-31T11:20:26.234Z,33.41
2022-07-31T11:21:40.271Z,33.33
2022-07-31T11:22:42.965Z,33.37
2022-07-31T11:23:55.893Z,33.83
2022-07-31T11:25:05.005Z,34.78
2022-07-31T11:26:07.937Z,35.57
2022-07-31T11:27:09.598Z,35.83
2022-07-31T11:28:12.588Z,36.09
2022-07-31T11:29:59.753Z,36.11
2022-07-31T11:30:57.417Z,36.43
2022-07-31T11:32:24.737Z,36.36
2022-07-31T11:33:46.790Z,37.16
2022-07-31T11:34:53.938Z,38.22
2022-07-31T11:35:57.270Z,38.59
2022-07-31T11:36:58.884Z,38.46
2022-07-31T11:38:01.298Z,38.07
2022-07-31T11:39:03.698Z,37.48
2022-07-31T11:40:07.860Z,37.04
2022-07-31T11:41:10.140Z,36.52
2022-07-31T11:42:11.771Z,35.60
2022-07-31T11:43:29.259Z,35.09
2022-07-31T11:44:30.792Z,34.95
2022-07-31T11:45:33.524Z,35.44
2022-07-31T11:46:37.934Z,35.73
2022-07-31T11:48:11.169Z,36.43
2022-07-31T11:49:06.069Z,36.87
2022-07-31T11:50:10.384Z,36.38
2022-07-31T11:51:18.313Z,36.80
2022-07-31T11:52:30.840Z,36.73
2022-07-31T11:53:42.322Z,36.67
2022-07-31T11:54:44.020Z,35.86
2022-07-31T11:55:54.009Z,34.50
2022-07-31T11:56:56.023Z,34.28
2022-07-31T11:57:57.745Z,34.66
2022-07-31T11:58:59.401Z,35.40
2022-07-31T12:00:29.369Z,35.37
2022-07-31T12:01:31.108Z,36.00
2022-07-31T12:02:33.125Z,36.69
2022-07-31T12:03:39.097Z,36.33
2022-07-31T12:04:40.894Z,35.45
2022-07-31T12:05:48.134Z,35.19
2022-07-31T12:06:56.140Z,35.25
2022-07-31T12:07:58.209Z,35.68
2022-07-31T12:09:00.034Z,36.22
2022-07-31T12:10:03.666Z,36.95
2022-07-31T12:11:08.109Z,37.01
2022-07-31T12:12:11.764Z,37.65
2022-07-31T12:13:16.441Z,38.00
2022-07-31T12:14:47.343Z,38.42
2022-07-31T12:16:11.199Z,38.00
2022-07-31T12:17:20.500Z,36.15
2022-07-31T12:18:22.873Z,35.49
2022-07-31T12:19:30.291Z,35.88
2022-07-31T12:20:38.957Z,35.85
2022-07-31T12:21:40.736Z,35.79
2022-07-31T12:22:42.309Z,36.43
2022-07-31T12:23:51.306Z,36.45
2022-07-31T12:25:00.856Z,36.19
2022-07-31T12:26:02.679Z,36.24
2022-07-31T12:27:04.655Z,36.55
2022-07-31T12:28:08.880Z,36.97
2022-07-31T12:29:12.691Z,37.32
2022-07-31T12:30:16.683Z,37.07
2022-07-31T12:31:18.368Z,37.04
2022-07-31T12:32:27.819Z,36.88
2022-07-31T12:33:40.752Z,36.75
2022-07-31T12:34:43.300Z,36.95
2022-07-31T12:35:56.439Z,37.11
2022-07-31T12:37:04.608Z,36.99
2022-07-31T12:38:24.019Z,37.40
2022-07-31T12:39:47.598Z,37.72
2022-07-31T12:41:03.410Z,37.46
2022-07-31T12:42:06.277Z,37.74
2022-07-31T12:43:07.823Z,37.70
2022-07-31T12:44:14.368Z,38.54
2022-07-31T12:45:20.137Z,39.32
2022-07-31T12:46:34.916Z,39.71
2022-07-31T12:47:36.510Z,39.20
2022-07-31T12:48:41.133Z,39.44
2022-07-31T12:49:45.922Z,39.61
2022-07-31T12:50:47.591Z,39.79
2022-07-31T12:51:49.233Z,39.90
2022-07-31T12:52:51.340Z,40.12
2022-07-31T12:53:52.892Z,40.03
2022-07-31T12:54:54.533Z,39.42
2022-07-31T12:55:57.040Z,38.73
2022-07-31T12:56:58.621Z,38.08
2022-07-31T12:58:00.358Z,38.03
2022-07-31T12:59:02.391Z,37.44
2022-07-31T13:00:06.017Z,37.37
2022-07-31T13:01:07.687Z,37.13
2022-07-31T13:02:09.621Z,37.40
2022-07-31T13:03:11.204Z,38.12
2022-07-31T13:04:18.917Z,38.65
2022-07-31T13:05:22.355Z,39.18
2022-07-31T13:06:26.415Z,39.75
2022-07-31T13:07:28.159Z,39.55
2022-07-31T13:08:29.844Z,39.44
2022-07-31T13:09:35.097Z,39.68
2022-07-31T13:10:36.774Z,39.26
2022-07-31T13:11:46.821Z,38.58
2022-07-31T13:12:52.956Z,38.49
2022-07-31T13:13:56.817Z,37.64
2022-07-31T13:14:58.456Z,37.80
2022-07-31T13:16:00.177Z,37.59
2022-07-31T13:17:02.145Z,36.67
2022-07-31T13:18:05.087Z,37.13
2022-07-31T13:19:07.988Z,37.27
2022-07-31T13:20:10.107Z,37.46
2022-07-31T13:21:18.255Z,36.86
2022-07-31T13:22:19.848Z,37.10
2022-07-31T13:23:21.619Z,36.89
2022-07-31T13:24:23.157Z,37.49
2022-07-31T13:25:26.561Z,37.77
2022-07-31T13:26:29.061Z,37.69
2022-07-31T13:27:30.661Z,37.27
2022-07-31T13:28:32.270Z,37.72
2022-07-31T13:29:33.935Z,37.93
2022-07-31T13:30:35.499Z,38.02
2022-07-31T13:31:37.106Z,37.72
2022-07-31T13:32:38.638Z,37.67
2022-07-31T13:33:40.275Z,37.50
2022-07-31T13:34:42.035Z,37.53
2022-07-31T13:35:43.773Z,37.80
2022-07-31T13:36:45.362Z,38.07
2022-07-31T13:37:48.008Z,38.70
2022-07-31T13:38:50.615Z,39.13
2022-07-31T13:39:52.252Z,39.34
2022-07-31T13:41:12.471Z,39.57
2022-07-31T13:42:14.029Z,39.69
2022-07-31T13:43:17.183Z,39.67
2022-07-31T13:44:18.832Z,38.89
2022-07-31T13:45:20.405Z,38.74
2022-07-31T13:46:23.327Z,38.56
2022-07-31T13:47:25.013Z,37.86
2022-07-31T13:48:26.622Z,37.64
2022-07-31T13:49:32.118Z,37.99
2022-07-31T13:50:33.877Z,38.40
2022-07-31T13:51:37.194Z,38.25
2022-07-31T13:52:38.737Z,37.88
2022-07-31T13:53:43.892Z,38.74
2022-07-31T13:54:45.430Z,39.06